Time;durP1;ratioP1;P1;durP2;ratioP2;P2;SDS_P1;SDS_P2;PMS_P1;PMS_P2;Temp;Humidity;BMP_temperature;BMP_pressure;BME280_temperature;BME280_humidity;BME280_pressure;Samples;Min_cycle;Max_cycle;Signal;HPM_P1;HPM_P2
2022/08/17 00:00:08;;;;;;;;;;;;;;;25.22;25.92;100490.50;5028183;28;20084;-75
2022/08/17 00:02:58;;;;;;;;;;;;;;;25.17;25.61;100493.16;5026763;28;20066;-74
2022/08/17 00:05:30;;;;;;;;;;;;;;;25.14;25.97;100481.59;5048177;28;20028;-74
2022/08/17 00:08:00;;;;;;;;;;;;;;;25.10;25.84;100491.53;5031723;28;19925;-74
2022/08/17 00:10:28;;;;;;;;;;;;;;;25.06;25.97;100488.34;5027640;28;19925;-74
2022/08/17 00:12:59;;;;;;;;;;;;;;;25.03;26.12;100496.41;5026810;28;19925;-74
2022/08/17 00:15:27;;;;;;;;;;;;;;;24.99;26.29;100486.75;5046380;28;19976;-75
2022/08/17 00:17:55;;;;;;;;;;;;;;;24.97;26.09;100486.16;5035813;28;19925;-74
2022/08/17 00:20:23;;;;;;;;;;;;;;;24.93;26.14;100485.72;5031224;28;19925;-74
2022/08/17 00:23:04;;;;;;;;;;;;;;;24.91;26.34;100479.50;5034332;28;20544;-74
2022/08/17 00:25:32;;;;;;;;;;;;;;;24.87;26.37;100481.94;5032095;28;19931;-75
2022/08/17 00:28:00;;;;;;;;;;;;;;;24.84;26.38;100478.75;5027717;28;19933;-74
2022/08/17 00:30:29;;;;;;;;;;;;;;;24.81;26.48;100487.66;5027476;28;19933;-75
2022/08/17 00:33:18;;;;;;;;;;;;;;;24.77;26.35;100484.47;5025935;28;19929;-76
2022/08/17 00:35:47;;;;;;;;;;;;;;;24.75;26.60;100478.25;5031468;28;19971;-74
2022/08/17 00:38:16;;;;;;;;;;;;;;;24.72;26.47;100481.53;5031857;28;19925;-75
2022/08/17 00:40:45;;;;;;;;;;;;;;;24.70;26.37;100478.09;5028835;28;19944;-74
2022/08/17 00:43:16;;;;;;;;;;;;;;;24.67;26.78;100481.38;5032333;28;19929;-74
2022/08/17 00:45:44;;;;;;;;;;;;;;;24.65;26.56;100482.72;5031391;28;19925;-74
2022/08/17 00:48:13;;;;;;;;;;;;;;;24.62;26.51;100478.44;5033728;28;20306;-74
2022/08/17 00:50:58;;;;;;;;;;;;;;;24.59;26.73;100470.50;5031359;28;19932;-75
2022/08/17 00:53:32;;;;;;;;;;;;;;;24.57;26.80;100477.44;5031409;28;20060;-74
2022/08/17 00:56:02;;;;;;;;;;;;;;;24.55;27.00;100477.69;5031393;28;19937;-75
2022/08/17 00:58:30;;;;;;;;;;;;;;;24.52;26.67;100470.59;5031404;28;19932;-75
2022/08/17 01:01:03;;;;;;;;;;;;;;;24.50;27.10;100469.13;5034268;28;19956;-75
2022/08/17 01:03:32;;;;;;;;;;;;;;;24.49;26.89;100457.06;5031625;28;19928;-74
2022/08/17 01:06:02;;;;;;;;;;;;;;;24.47;26.96;100464.88;5036543;28;19933;-74
2022/08/17 01:08:32;;;;;;;;;;;;;;;24.46;27.25;100465.09;5056001;28;19940;-74
2022/08/17 01:11:01;;;;;;;;;;;;;;;24.45;27.24;100463.38;5031901;28;19936;-74
2022/08/17 01:13:31;;;;;;;;;;;;;;;24.43;27.45;100462.75;5032749;28;20003;-74
2022/08/17 01:16:09;;;;;;;;;;;;;;;24.41;27.32;100460.19;5032113;28;19932;-74
2022/08/17 01:18:37;;;;;;;;;;;;;;;24.39;27.01;100462.41;5033345;28;20264;-74
2022/08/17 01:21:09;;;;;;;;;;;;;;;24.38;27.33;100462.63;5031637;28;19932;-74
2022/08/17 01:23:40;;;;;;;;;;;;;;;24.35;27.05;100463.06;5033165;28;19937;-74
2022/08/17 01:26:09;;;;;;;;;;;;;;;24.32;27.45;100467.16;5034357;28;19979;-74
2022/08/17 01:28:37;;;;;;;;;;;;;;;24.29;27.37;100469.59;5032389;28;20002;-75
2022/08/17 01:31:24;;;;;;;;;;;;;;;24.28;27.32;100476.25;5030718;28;20012;-75
2022/08/17 01:33:52;;;;;;;;;;;;;;;24.25;27.67;100473.94;5032662;28;20145;-75
2022/08/17 01:36:21;;;;;;;;;;;;;;;24.21;27.63;100467.97;5035223;28;19932;-74
2022/08/17 01:38:51;;;;;;;;;;;;;;;24.18;27.49;100471.22;5034316;28;19940;-74
2022/08/17 01:41:21;;;;;;;;;;;;;;;24.17;27.79;100468.66;5028851;28;19972;-74
2022/08/17 01:43:51;;;;;;;;;;;;;;;24.13;27.72;100476.66;5032294;28;19925;-75
2022/08/17 01:46:21;;;;;;;;;;;;;;;24.11;27.80;100473.25;5027695;28;19926;-75
2022/08/17 01:48:50;;;;;;;;;;;;;;;24.08;27.45;100474.56;5030574;28;19925;-75
2022/08/17 01:51:18;;;;;;;;;;;;;;;24.06;27.76;100468.38;5032001;28;19929;-75
2022/08/17 01:53:48;;;;;;;;;;;;;;;24.02;28.01;100475.50;5024504;28;19932;-75
2022/08/17 01:56:18;;;;;;;;;;;;;;;24.00;27.96;100476.78;5030843;28;20479;-74
2022/08/17 01:58:47;;;;;;;;;;;;;;;23.96;28.06;100469.97;5030800;28;19925;-76
2022/08/17 02:01:16;;;;;;;;;;;;;;;23.92;28.23;100463.97;5030040;28;19972;-75
2022/08/17 02:03:45;;;;;;;;;;;;;;;23.89;27.95;100469.19;5034324;28;19925;-74
2022/08/17 02:06:27;;;;;;;;;;;;;;;23.82;27.91;100466.47;5026476;28;20494;-74
2022/08/17 02:08:56;;;;;;;;;;;;;;;23.79;28.33;100468.88;5030189;28;19925;-75
2022/08/17 02:11:32;;;;;;;;;;;;;;;23.73;27.84;100470.63;5031250;28;19932;-75
2022/08/17 02:14:01;;;;;;;;;;;;;;;23.68;28.30;100468.50;5031464;28;19971;-75
2022/08/17 02:16:31;;;;;;;;;;;;;;;23.63;28.47;100473.94;5029988;28;20571;-74
2022/08/17 02:19:05;;;;;;;;;;;;;;;23.58;28.35;100470.13;5020327;28;19933;-75
2022/08/17 02:21:33;;;;;;;;;;;;;;;23.53;28.24;100467.16;5031337;28;19960;-74
2022/08/17 02:24:01;;;;;;;;;;;;;;;23.46;28.74;100461.63;5039214;28;19929;-74
2022/08/17 02:26:29;;;;;;;;;;;;;;;23.43;28.42;100464.03;5030431;28;19992;-74
2022/08/17 02:28:59;;;;;;;;;;;;;;;23.37;28.75;100463.88;5030119;28;19932;-74
2022/08/17 02:31:27;;;;;;;;;;;;;;;23.33;28.86;100464.56;5029910;28;19925;-74
2022/08/17 02:33:55;;;;;;;;;;;;;;;23.29;28.98;100466.09;5039009;28;19929;-75
2022/08/17 02:36:32;;;;;;;;;;;;;;;23.26;28.82;100472.09;5026180;28;19925;-74
2022/08/17 02:39:00;;;;;;;;;;;;;;;23.21;29.08;100463.56;5031939;28;19932;-75
2022/08/17 02:41:28;;;;;;;;;;;;;;;23.17;28.71;100462.31;5030858;28;19936;-74
2022/08/17 02:43:56;;;;;;;;;;;;;;;23.14;28.95;100463.59;5034891;28;19925;-75
2022/08/17 02:46:25;;;;;;;;;;;;;;;23.10;29.08;100456.75;5026891;28;19925;-74
2022/08/17 02:48:54;;;;;;;;;;;;;;;23.07;29.16;100457.22;5025133;28;19969;-75
2022/08/17 02:51:22;;;;;;;;;;;;;;;23.04;29.34;100452.06;5029479;28;19925;-74
2022/08/17 02:53:49;;;;;;;;;;;;;;;23.01;29.39;100460.88;5029889;28;19975;-76
2022/08/17 02:56:18;;;;;;;;;;;;;;;22.98;29.38;100458.56;5030880;28;19979;-75
2022/08/17 02:58:46;;;;;;;;;;;;;;;22.94;29.36;100457.28;5029924;28;19925;-75
2022/08/17 03:01:14;;;;;;;;;;;;;;;22.90;29.40;100458.84;5037985;28;19925;-75
2022/08/17 03:03:43;;;;;;;;;;;;;;;22.86;29.55;100455.63;5022797;28;19956;-73
2022/08/17 03:06:11;;;;;;;;;;;;;;;22.84;29.45;100457.78;5051360;28;19969;-73
2022/08/17 03:08:39;;;;;;;;;;;;;;;22.81;29.68;100452.69;5022665;28;19929;-74
2022/08/17 03:11:07;;;;;;;;;;;;;;;22.78;29.36;100458.69;5029667;28;20002;-74
2022/08/17 03:13:35;;;;;;;;;;;;;;;22.76;29.48;100458.06;5027798;28;20304;-73
2022/08/17 03:16:03;;;;;;;;;;;;;;;22.74;29.73;100459.38;5025996;28;19933;-75
2022/08/17 03:18:31;;;;;;;;;;;;;;;22.71;29.74;100452.31;5028099;28;19936;-75
2022/08/17 03:21:03;;;;;;;;;;;;;;;22.69;30.02;100454.47;5044407;28;19925;-75
2022/08/17 03:23:31;;;;;;;;;;;;;;;22.66;29.93;100454.06;5025971;28;20286;-75
2022/08/17 03:26:00;;;;;;;;;;;;;;;22.63;30.06;100452.56;5030397;28;20020;-75
2022/08/17 03:28:29;;;;;;;;;;;;;;;22.61;30.05;100455.56;5028804;28;19971;-75
2022/08/17 03:30:57;;;;;;;;;;;;;;;22.59;30.11;100451.31;5030912;28;19932;-74
2022/08/17 03:33:25;;;;;;;;;;;;;;;22.56;29.99;100455.41;5021276;28;20160;-74
2022/08/17 03:35:53;;;;;;;;;;;;;;;22.55;30.06;100452.81;5029661;28;19932;-74
2022/08/17 03:38:23;;;;;;;;;;;;;;;22.52;29.89;100454.09;5033379;28;19925;-74
2022/08/17 03:40:51;;;;;;;;;;;;;;;22.49;30.44;100460.13;5034103;28;19936;-74
2022/08/17 03:43:27;;;;;;;;;;;;;;;22.47;30.26;100451.13;5029143;28;19933;-74
2022/08/17 03:57:23;;;;;;;;;;;;;;;22.33;30.09;100445.84;5024787;28;19979;-74
2022/08/17 03:59:51;;;;;;;;;;;;;;;22.31;30.11;100453.56;5041497;28;21076;-74
2022/08/17 04:02:21;;;;;;;;;;;;;;;22.29;30.09;100459.34;5027902;28;19925;-74
2022/08/17 04:04:51;;;;;;;;;;;;;;;22.25;30.35;100458.97;5025480;28;20430;-74
2022/08/17 04:07:19;;;;;;;;;;;;;;;22.22;30.68;100461.31;5029962;28;19925;-74
2022/08/17 04:09:49;;;;;;;;;;;;;;;22.19;30.24;100456.16;5027385;28;19952;-75
2022/08/17 04:12:18;;;;;;;;;;;;;;;22.16;30.25;100451.91;5030303;28;19925;-74
2022/08/17 04:14:46;;;;;;;;;;;;;;;22.14;30.66;100445.69;5041793;28;19929;-74
2022/08/17 04:17:21;;;;;;;;;;;;;;;22.12;30.34;100449.78;5041043;28;19925;-75
2022/08/17 04:19:49;;;;;;;;;;;;;;;22.09;30.49;100462.25;5021173;28;19925;-74
2022/08/17 04:22:18;;;;;;;;;;;;;;;22.09;30.46;100472.53;5029093;28;19929;-74
2022/08/17 04:25:03;;;;;;;;;;;;;;;22.07;30.97;100483.88;5050441;28;20549;-74
2022/08/17 04:27:33;;;;;;;;;;;;;;;22.08;31.04;100487.53;5023487;28;19925;-75
2022/08/17 04:30:01;;;;;;;;;;;;;;;22.07;31.17;100481.09;5025205;28;19925;-74
2022/08/17 04:32:30;;;;;;;;;;;;;;;22.06;31.17;100482.16;5053994;28;19928;-74
2022/08/17 04:35:19;;;;;;;;;;;;;;;22.06;30.74;100484.09;5022065;28;20402;-74
2022/08/17 04:37:47;;;;;;;;;;;;;;;22.07;30.80;100488.59;5029393;28;19929;-74
2022/08/17 04:43:04;;;;;;;;;;;;;;;22.05;30.65;100487.97;5028778;28;20291;-75
2022/08/17 04:45:32;;;;;;;;;;;;;;;22.05;31.22;100490.75;5029731;28;19972;-75
2022/08/17 04:48:01;;;;;;;;;;;;;;;22.04;30.68;100489.88;5026136;28;19975;-74
2022/08/17 04:50:29;;;;;;;;;;;;;;;22.04;31.05;100489.88;5026673;28;20264;-74
2022/08/17 04:52:57;;;;;;;;;;;;;;;22.03;31.14;100488.16;5029986;28;20315;-74
2022/08/17 04:55:27;;;;;;;;;;;;;;;22.03;30.86;100492.88;5027741;28;20280;-74
2022/08/17 04:57:55;;;;;;;;;;;;;;;22.01;31.06;100487.56;5026700;28;19929;-74
2022/08/17 05:00:24;;;;;;;;;;;;;;;22.00;30.76;100479.41;5023472;28;19961;-73
2022/08/17 05:02:54;;;;;;;;;;;;;;;22.00;31.12;100479.41;5022241;28;20400;-74
2022/08/17 05:05:23;;;;;;;;;;;;;;;21.98;30.82;100482.41;5025843;28;20537;-74
2022/08/17 05:07:53;;;;;;;;;;;;;;;21.99;31.08;100474.91;5025129;28;19929;-74
2022/08/17 05:10:21;;;;;;;;;;;;;;;21.99;30.94;100480.47;5027849;28;19977;-74
2022/08/17 05:12:58;;;;;;;;;;;;;;;21.97;30.75;100480.69;5025495;28;19925;-73
2022/08/17 05:15:27;;;;;;;;;;;;;;;21.98;30.94;100489.91;5022747;28;20036;-73
2022/08/17 05:18:00;;;;;;;;;;;;;;;21.98;30.90;100487.13;5030436;28;19979;-74
2022/08/17 05:20:30;;;;;;;;;;;;;;;21.99;31.19;100491.63;5030028;28;20067;-73
2022/08/17 05:22:59;;;;;;;;;;;;;;;22.00;31.02;100496.13;5022210;28;19929;-74
2022/08/17 05:25:28;;;;;;;;;;;;;;;22.02;31.33;100488.38;5031986;28;19933;-75
2022/08/17 05:28:01;;;;;;;;;;;;;;;22.03;31.10;100490.09;5033509;28;20032;-74
2022/08/17 05:30:29;;;;;;;;;;;;;;;22.05;30.98;100490.75;5029674;28;19972;-74
2022/08/17 05:32:58;;;;;;;;;;;;;;;22.07;31.49;100485.81;5044554;28;19925;-74
2022/08/17 05:35:28;;;;;;;;;;;;;;;22.08;31.13;100480.03;5031791;28;19925;-74
2022/08/17 05:37:56;;;;;;;;;;;;;;;22.10;30.97;100483.44;5046918;28;19948;-73
2022/08/17 05:40:25;;;;;;;;;;;;;;;22.12;31.08;100484.06;5030293;28;20281;-74
2022/08/17 05:43:09;;;;;;;;;;;;;;;22.14;31.26;100490.28;5029556;28;19979;-75
2022/08/17 05:45:39;;;;;;;;;;;;;;;22.16;31.51;100490.06;5026016;28;20296;-76
2022/08/17 05:48:23;;;;;;;;;;;;;;;22.18;31.16;100479.53;5030462;28;19925;-75
2022/08/17 05:51:15;;;;;;;;;;;;;;;22.20;31.20;100481.03;5029690;28;19935;-74
2022/08/17 05:53:51;;;;;;;;;;;;;;;22.23;31.39;100485.34;5036683;28;19936;-74
2022/08/17 05:56:24;;;;;;;;;;;;;;;22.24;31.53;100485.13;5031814;28;20380;-74
2022/08/17 05:59:03;;;;;;;;;;;;;;;22.28;31.48;100516.19;5028859;28;19925;-74
2022/08/17 06:01:35;;;;;;;;;;;;;;;22.31;31.78;100532.47;5027217;28;19929;-75
2022/08/17 06:04:15;;;;;;;;;;;;;;;22.33;31.23;100524.75;5028835;28;19933;-74
2022/08/17 06:06:50;;;;;;;;;;;;;;;22.36;31.47;100540.19;5031775;28;19929;-74
2022/08/17 06:09:28;;;;;;;;;;;;;;;22.39;31.10;100548.09;5029351;28;20362;-75
2022/08/17 06:12:03;;;;;;;;;;;;;;;22.40;31.42;100492.13;5033129;28;19935;-74
2022/08/17 06:14:44;;;;;;;;;;;;;;;22.43;31.13;100529.84;5030537;28;20114;-76
2022/08/17 06:17:14;;;;;;;;;;;;;;;22.46;30.95;100527.50;5027173;28;19929;-73
2022/08/17 06:19:44;;;;;;;;;;;;;;;22.48;31.02;100536.50;5029526;28;20327;-74
2022/08/17 06:22:14;;;;;;;;;;;;;;;22.52;30.88;100520.16;5030619;28;20316;-74
2022/08/17 06:24:43;;;;;;;;;;;;;;;22.54;30.87;100524.47;5032023;28;19955;-74
2022/08/17 06:27:17;;;;;;;;;;;;;;;22.58;30.91;100530.50;5028899;28;19933;-74
2022/08/17 06:29:53;;;;;;;;;;;;;;;22.61;31.20;100522.50;5028870;28;20311;-74
2022/08/17 06:32:22;;;;;;;;;;;;;;;22.66;31.21;100529.38;5044161;28;20391;-74
2022/08/17 06:34:50;;;;;;;;;;;;;;;22.68;30.78;100530.84;5026339;28;19929;-74
2022/08/17 06:37:23;;;;;;;;;;;;;;;22.72;30.96;100531.28;5025713;28;20469;-73
2022/08/17 06:39:55;;;;;;;;;;;;;;;22.78;30.81;100533.16;5031455;28;20222;-74
2022/08/17 06:42:28;;;;;;;;;;;;;;;22.80;31.27;100539.38;5042951;28;19926;-74
2022/08/17 06:45:20;;;;;;;;;;;;;;;22.86;30.90;100555.22;5017932;28;20153;-74
2022/08/17 06:47:52;;;;;;;;;;;;;;;22.90;31.11;100553.72;5029767;28;19951;-74
2022/08/17 06:50:27;;;;;;;;;;;;;;;22.94;31.36;100547.44;5030802;28;20391;-75
2022/08/17 06:52:57;;;;;;;;;;;;;;;22.99;31.34;100553.25;5034128;28;19936;-75
2022/08/17 06:55:29;;;;;;;;;;;;;;;23.03;31.47;100537.75;5023928;28;19933;-75
2022/08/17 06:58:06;;;;;;;;;;;;;;;23.08;31.14;100559.41;5027277;28;19936;-75
2022/08/17 07:00:46;;;;;;;;;;;;;;;23.12;31.39;100557.03;5015320;28;19929;-75
2022/08/17 07:03:19;;;;;;;;;;;;;;;23.16;31.19;100559.19;5037917;28;20021;-74
2022/08/17 07:05:51;;;;;;;;;;;;;;;23.20;31.19;100568.81;5030400;28;19948;-75
2022/08/17 07:08:32;;;;;;;;;;;;;;;23.25;31.38;100573.75;5028828;28;20402;-80
2022/08/17 07:11:08;;;;;;;;;;;;;;;23.29;31.34;100577.78;5033993;28;20261;-80
2022/08/17 07:13:43;;;;;;;;;;;;;;;23.34;31.32;100589.13;5030078;28;21764;-80
2022/08/17 07:16:22;;;;;;;;;;;;;;;23.38;31.42;100571.69;5026752;28;19925;-81
2022/08/17 07:18:51;;;;;;;;;;;;;;;23.42;31.34;100569.28;5024875;28;19940;-81
2022/08/17 07:21:27;;;;;;;;;;;;;;;23.46;31.48;100570.56;5032810;28;19925;-81
2022/08/17 07:24:00;;;;;;;;;;;;;;;23.50;31.03;100580.19;5031248;28;19952;-81
2022/08/17 07:26:28;;;;;;;;;;;;;;;23.55;31.58;100582.31;5035067;28;19955;-81
2022/08/17 07:28:57;;;;;;;;;;;;;;;23.59;31.28;100589.16;5021543;28;20388;-80
2022/08/17 07:31:29;;;;;;;;;;;;;;;23.64;31.33;100584.63;5027550;28;20116;-81
2022/08/17 07:34:07;;;;;;;;;;;;;;;23.68;31.18;100587.78;5016113;28;19925;-80
2022/08/17 07:36:42;;;;;;;;;;;;;;;23.73;31.18;100580.47;5040918;28;19947;-80
2022/08/17 07:39:10;;;;;;;;;;;;;;;23.79;31.38;100583.44;5029804;28;19968;-81
2022/08/17 07:41:44;;;;;;;;;;;;;;;23.84;31.31;100573.28;5043301;28;19967;-80
2022/08/17 07:44:25;;;;;;;;;;;;;;;23.89;31.40;100576.25;5042243;28;19975;-81
2022/08/17 07:49:47;;;;;;;;;;;;;;;24.01;31.08;100568.81;5032517;28;19925;-75
2022/08/17 07:52:28;;;;;;;;;;;;;;;24.06;31.29;100580.19;5030004;28;20001;-74
2022/08/17 07:55:25;;;;;;;;;;;;;;;24.12;31.26;100584.84;5030780;28;19939;-75
2022/08/17 07:57:56;;;;;;;;;;;;;;;24.19;31.17;100600.69;5030432;28;20383;-75
2022/08/17 08:00:24;;;;;;;;;;;;;;;24.24;31.15;100598.09;5033269;28;19925;-75
2022/08/17 08:03:17;;;;;;;;;;;;;;;24.29;30.98;100604.69;5027815;28;19940;-74
2022/08/17 08:05:51;;;;;;;;;;;;;;;24.34;31.12;100595.59;5024465;28;19931;-75
2022/08/17 08:08:25;;;;;;;;;;;;;;;24.39;31.13;100607.00;5034116;28;19936;-75
2022/08/17 08:11:15;;;;;;;;;;;;;;;24.42;31.12;100612.09;5031990;28;19925;-75
2022/08/17 08:13:48;;;;;;;;;;;;;;;24.45;30.85;100604.13;5023614;28;19924;-74
2022/08/17 08:16:24;;;;;;;;;;;;;;;24.48;30.73;100609.22;5042830;28;19932;-74
2022/08/17 08:18:54;;;;;;;;;;;;;;;24.52;31.06;100624.47;5020227;28;19929;-74
2022/08/17 08:21:33;;;;;;;;;;;;;;;24.55;31.10;100619.50;5023734;28;19929;-74
2022/08/17 08:24:08;;;;;;;;;;;;;;;24.58;31.06;100610.63;5028612;28;19936;-74
2022/08/17 08:26:41;;;;;;;;;;;;;;;24.62;31.01;100611.88;5029372;28;19929;-75
2022/08/17 08:29:17;;;;;;;;;;;;;;;24.65;31.04;100609.47;5027844;28;20449;-75
2022/08/17 08:31:50;;;;;;;;;;;;;;;24.69;30.98;100621.06;5027252;28;19991;-74
2022/08/17 08:34:22;;;;;;;;;;;;;;;24.71;31.15;100611.34;5015448;28;19937;-75
2022/08/17 08:37:18;;;;;;;;;;;;;;;24.75;30.81;100623.78;5036581;28;20299;-74
2022/08/17 08:40:07;;;;;;;;;;;;;;;24.79;30.90;100629.78;5019492;28;20279;-75
2022/08/17 08:42:37;;;;;;;;;;;;;;;24.82;31.17;100635.75;5030954;28;19987;-75
2022/08/17 08:45:12;;;;;;;;;;;;;;;24.85;30.86;100628.81;5043081;28;19926;-75
2022/08/17 08:47:50;;;;;;;;;;;;;;;24.87;30.80;100630.31;5015131;28;20376;-74
2022/08/17 08:50:25;;;;;;;;;;;;;;;24.88;30.64;100619.97;5028783;28;19951;-74
2022/08/17 08:53:26;;;;;;;;;;;;;;;24.90;30.81;100620.56;5024182;28;19925;-74
2022/08/17 08:55:59;;;;;;;;;;;;;;;24.90;30.76;100618.63;5049048;28;19979;-75
2022/08/17 08:58:34;;;;;;;;;;;;;;;24.90;30.62;100618.63;5032578;28;19933;-75
2022/08/17 09:01:13;;;;;;;;;;;;;;;24.89;30.72;100608.53;5031924;28;19925;-75
2022/08/17 09:04:05;;;;;;;;;;;;;;;24.88;30.44;100611.56;5029964;28;19929;-75
2022/08/17 09:06:58;;;;;;;;;;;;;;;24.85;30.64;100617.63;5026904;28;20515;-74
2022/08/17 09:09:30;;;;;;;;;;;;;;;24.83;30.54;100603.88;5047730;28;19926;-76
2022/08/17 09:12:05;;;;;;;;;;;;;;;24.81;30.80;100614.44;5030370;28;19929;-76
2022/08/17 09:14:36;;;;;;;;;;;;;;;24.80;30.68;100609.09;5030041;28;19933;-76
2022/08/17 09:17:15;;;;;;;;;;;;;;;24.78;30.69;100605.66;5030539;28;20281;-76
2022/08/17 09:19:48;;;;;;;;;;;;;;;24.77;30.56;100618.81;5030137;28;19932;-75
2022/08/17 09:22:21;;;;;;;;;;;;;;;24.76;30.96;100621.81;5049603;28;20273;-75
2022/08/17 09:24:53;;;;;;;;;;;;;;;24.75;30.85;100620.97;5031734;28;19929;-75
2022/08/17 09:27:25;;;;;;;;;;;;;;;24.74;30.90;100612.81;5029767;28;20435;-75
2022/08/17 09:29:56;;;;;;;;;;;;;;;24.73;30.68;100616.72;5045395;28;20260;-75
2022/08/17 09:32:28;;;;;;;;;;;;;;;24.73;30.86;100616.72;5026400;28;19925;-75
2022/08/17 09:35:00;;;;;;;;;;;;;;;24.71;30.86;100616.09;5032323;28;19928;-75
2022/08/17 09:37:32;;;;;;;;;;;;;;;24.70;30.96;100617.19;5032522;28;19925;-74
2022/08/17 09:40:07;;;;;;;;;;;;;;;24.70;31.00;100628.38;5027614;28;20169;-74
2022/08/17 09:42:42;;;;;;;;;;;;;;;24.69;30.96;100630.31;5032385;28;20229;-75
2022/08/17 09:45:22;;;;;;;;;;;;;;;24.68;30.76;100625.78;5044906;28;19928;-75
2022/08/17 09:47:54;;;;;;;;;;;;;;;24.67;30.96;100623.22;5021703;28;20301;-74
2022/08/17 09:50:26;;;;;;;;;;;;;;;24.67;31.07;100626.88;5031469;28;20047;-74
2022/08/17 09:53:14;;;;;;;;;;;;;;;24.65;30.88;100626.25;5029543;28;19960;-74
2022/08/17 09:55:50;;;;;;;;;;;;;;;24.63;31.06;100624.78;5027517;28;20044;-74
2022/08/17 09:58:24;;;;;;;;;;;;;;;24.60;30.77;100628.91;5028495;28;19933;-74
2022/08/17 10:01:01;;;;;;;;;;;;;;;24.59;30.84;100637.53;5027361;28;19964;-74
2022/08/17 10:03:47;;;;;;;;;;;;;;;24.58;30.84;100638.59;5030895;28;20036;-74
2022/08/17 10:06:18;;;;;;;;;;;;;;;24.55;31.15;100637.16;5030924;28;19929;-74
2022/08/17 10:08:53;;;;;;;;;;;;;;;24.51;30.97;100647.94;5028593;28;19929;-74
2022/08/17 10:12:14;;;;;;;;;;;;;;;24.49;30.98;100664.09;5042240;28;19976;-73
2022/08/17 10:14:24;;;;;;;;;;;;;;;24.47;31.11;100665.44;5027885;28;19925;-74
2022/08/17 10:17:15;;;;;;;;;;;;;;;24.43;31.07;100656.63;5030485;28;19925;-75
2022/08/17 10:19:49;;;;;;;;;;;;;;;24.41;31.17;100653.19;5029436;28;19933;-75
2022/08/17 10:28:17;;;;;;;;;;;;;;;24.33;31.26;100661.84;5020644;28;19929;-74
2022/08/17 10:30:52;;;;;;;;;;;;;;;24.31;31.21;100664.06;5030993;28;19931;-75
2022/08/17 10:33:49;;;;;;;;;;;;;;;24.29;31.46;100665.34;5025948;28;19929;-75
2022/08/17 10:36:22;;;;;;;;;;;;;;;24.27;31.35;100670.31;5029097;28;20043;-75
2022/08/17 10:38:58;;;;;;;;;;;;;;;24.25;31.33;100676.13;5052627;28;19932;-75
2022/08/17 10:41:29;;;;;;;;;;;;;;;24.23;31.51;100660.69;5029978;28;19936;-75
2022/08/17 10:44:02;;;;;;;;;;;;;;;24.21;31.65;100648.88;5030809;28;19925;-74
2022/08/17 10:46:56;;;;;;;;;;;;;;;24.19;31.64;100637.03;5029980;28;20292;-75
2022/08/17 10:49:29;;;;;;;;;;;;;;;24.17;31.39;100633.63;5016926;28;19925;-75
2022/08/17 10:51:58;;;;;;;;;;;;;;;24.15;31.63;100625.47;5045715;28;19925;-74
2022/08/17 10:54:44;;;;;;;;;;;;;;;24.14;32.17;100618.19;5028915;28;19968;-75
2022/08/17 10:57:27;;;;;;;;;;;;;;;24.12;32.30;100611.94;5031419;28;19933;-76
2022/08/17 10:59:56;;;;;;;;;;;;;;;24.10;32.12;100602.94;5026878;28;19952;-75
2022/08/17 11:02:29;;;;;;;;;;;;;;;24.09;31.96;100606.81;5029774;28;20399;-76
2022/08/17 11:05:10;;;;;;;;;;;;;;;24.07;31.96;100607.03;5031403;28;19925;-76
2022/08/17 11:07:45;;;;;;;;;;;;;;;24.06;32.30;100613.75;5031157;28;19964;-75
2022/08/17 11:10:23;;;;;;;;;;;;;;;24.04;32.31;100621.50;5026016;28;20170;-75
2022/08/17 11:12:59;;;;;;;;;;;;;;;24.02;32.49;100618.06;5023446;28;19952;-76
2022/08/17 11:15:37;;;;;;;;;;;;;;;24.01;32.35;100619.13;5030041;28;19925;-76
2022/08/17 11:18:18;;;;;;;;;;;;;;;24.01;32.73;100629.47;5029625;28;20296;-76
2022/08/17 11:21:05;;;;;;;;;;;;;;;24.00;32.69;100625.81;5028902;28;19925;-76
2022/08/17 11:23:47;;;;;;;;;;;;;;;24.00;32.69;100639.78;5016839;28;19940;-76
2022/08/17 11:26:24;;;;;;;;;;;;;;;24.02;32.72;100639.56;5035420;28;19987;-76
2022/08/17 11:28:57;;;;;;;;;;;;;;;24.04;33.06;100641.06;5037505;28;19929;-77
2022/08/17 11:31:29;;;;;;;;;;;;;;;24.08;33.05;100645.09;5024528;28;20300;-76
2022/08/17 11:34:13;;;;;;;;;;;;;;;24.14;33.04;100647.00;5029035;28;19933;-76
2022/08/17 11:36:51;;;;;;;;;;;;;;;24.22;33.15;100645.84;5030130;28;20376;-76
2022/08/17 11:39:29;;;;;;;;;;;;;;;24.30;33.18;100642.75;5029654;28;19929;-76
2022/08/17 11:42:03;;;;;;;;;;;;;;;24.40;33.30;100647.88;5044499;28;19929;-76
2022/08/17 11:44:46;;;;;;;;;;;;;;;24.51;33.58;100653.53;5044645;28;19933;-76
2022/08/17 11:53:29;;;;;;;;;;;;;;;24.95;33.48;100659.97;5029699;28;19925;-76
2022/08/17 11:56:02;;;;;;;;;;;;;;;25.10;33.21;100653.97;5017714;28;19972;-77
2022/08/17 11:58:36;;;;;;;;;;;;;;;25.23;33.30;100649.03;5030820;28;19948;-76
2022/08/17 12:01:05;;;;;;;;;;;;;;;25.36;33.01;100644.34;5029385;28;20569;-77
2022/08/17 12:03:44;;;;;;;;;;;;;;;25.48;33.11;100653.63;5029079;28;19983;-76
2022/08/17 12:06:31;;;;;;;;;;;;;;;25.61;33.04;100656.28;5029500;28;19933;-76
2022/08/17 12:09:06;;;;;;;;;;;;;;;25.71;32.91;100661.31;5029129;28;19925;-77
2022/08/17 12:11:42;;;;;;;;;;;;;;;25.81;32.79;100661.56;5028991;28;19952;-77
2022/08/17 12:14:31;;;;;;;;;;;;;;;25.92;32.65;100663.56;5028773;28;19948;-76
2022/08/17 12:17:22;;;;;;;;;;;;;;;26.02;32.86;100670.28;5024629;28;19956;-77
2022/08/17 12:20:11;;;;;;;;;;;;;;;26.10;32.64;100663.50;5029335;28;20352;-77
2022/08/17 12:22:45;;;;;;;;;;;;;;;26.19;32.66;100662.06;5029026;28;20383;-76
2022/08/17 12:25:19;;;;;;;;;;;;;;;26.27;32.55;100663.66;5043658;28;19929;-76
2022/08/17 12:27:49;;;;;;;;;;;;;;;26.33;32.34;100668.28;5026877;28;19932;-76
2022/08/17 12:30:35;;;;;;;;;;;;;;;26.41;32.30;100667.06;5027947;28;20019;-77
2022/08/17 12:33:03;;;;;;;;;;;;;;;26.46;31.92;100670.88;5015672;28;19925;-77
2022/08/17 12:35:33;;;;;;;;;;;;;;;26.54;31.98;100672.44;5028118;28;19932;-77
2022/08/17 12:38:03;;;;;;;;;;;;;;;26.59;32.12;100672.56;5032441;28;20294;-77
2022/08/17 12:40:32;;;;;;;;;;;;;;;26.63;31.88;100671.84;5032991;28;19965;-77
2022/08/17 12:43:02;;;;;;;;;;;;;;;26.67;31.79;100667.47;5028792;28;20447;-77
2022/08/17 12:45:31;;;;;;;;;;;;;;;26.70;31.74;100669.78;5028583;28;19925;-77
2022/08/17 12:48:01;;;;;;;;;;;;;;;26.73;31.74;100668.41;5028768;28;19925;-77
2022/08/17 12:50:31;;;;;;;;;;;;;;;26.75;31.60;100669.88;5026659;28;19995;-77
2022/08/17 12:53:00;;;;;;;;;;;;;;;26.77;31.65;100660.38;5027488;28;19925;-77
2022/08/17 12:55:30;;;;;;;;;;;;;;;26.78;31.62;100660.13;5028562;28;19932;-77
2022/08/17 12:58:02;;;;;;;;;;;;;;;26.79;31.83;100646.94;5030549;28;19929;-77
2022/08/17 13:00:33;;;;;;;;;;;;;;;26.80;31.83;100657.91;5028524;28;19925;-77
2022/08/17 13:03:04;;;;;;;;;;;;;;;26.81;31.65;100664.38;5028311;28;19931;-77
2022/08/17 13:05:34;;;;;;;;;;;;;;;26.81;31.60;100664.38;5018223;28;19937;-76
2022/08/17 13:08:04;;;;;;;;;;;;;;;26.83;31.39;100656.56;5027309;28;20395;-76
2022/08/17 13:10:33;;;;;;;;;;;;;;;26.83;31.53;100667.78;5028633;28;19933;-77
2022/08/17 13:13:04;;;;;;;;;;;;;;;26.83;31.41;100665.84;5028174;28;20339;-77
2022/08/17 13:15:37;;;;;;;;;;;;;;;26.84;31.43;100670.38;5041156;28;19960;-77
2022/08/17 13:18:26;;;;;;;;;;;;;;;26.85;31.43;100666.47;5023723;28;19955;-77
2022/08/17 13:20:57;;;;;;;;;;;;;;;26.86;31.70;100654.13;5025291;28;19968;-76
2022/08/17 13:23:27;;;;;;;;;;;;;;;26.87;31.65;100664.28;5027156;28;19925;-76
2022/08/17 13:25:57;;;;;;;;;;;;;;;26.89;31.52;100667.66;5027335;28;20423;-76
2022/08/17 13:28:27;;;;;;;;;;;;;;;26.91;31.55;100673.88;5028606;28;19935;-77
2022/08/17 13:31:22;;;;;;;;;;;;;;;26.94;31.41;100681.84;5025149;28;19933;-77
2022/08/17 13:33:50;;;;;;;;;;;;;;;26.96;31.44;100684.38;5020827;28;19955;-77
2022/08/17 13:36:32;;;;;;;;;;;;;;;26.98;31.60;100679.38;5029192;28;19979;-76